createdAt,value
2017-01-06T09:20:42.058Z,1012
2017-01-06T09:21:53.419Z,1040
2017-01-06T09:23:04.313Z,1084
2017-01-06T09:24:15.210Z,1112
2017-01-06T09:25:25.719Z,1092
2017-01-06T09:26:36.616Z,1096
2017-01-06T09:27:47.934Z,1060
2017-01-06T09:28:58.827Z,960
2017-01-06T09:30:10.160Z,968
2017-01-06T09:31:21.105Z,968
2017-01-06T09:32:32.014Z,992
2017-01-06T09:33:42.924Z,1000
2017-01-06T09:34:53.825Z,1000
2017-01-06T09:36:05.150Z,1008
2017-01-06T09:37:16.532Z,996
2017-01-06T09:38:27.857Z,1012
2017-01-06T09:39:38.782Z,1032
2017-01-06T09:40:49.899Z,1012
2017-01-06T09:42:00.797Z,1000
2017-01-06T09:43:11.398Z,1004
2017-01-06T09:44:22.299Z,1000
2017-01-06T09:45:33.200Z,1012
2017-01-06T09:46:44.522Z,1048
2017-01-06T09:47:54.995Z,1088
2017-01-06T09:49:05.504Z,1112
2017-01-06T09:50:16.401Z,1136
2017-01-06T09:51:27.718Z,1188
2017-01-06T09:52:38.628Z,1252
2017-01-06T09:53:49.961Z,1284
2017-01-06T09:55:01.326Z,1312
2017-01-06T09:56:12.672Z,1364
2017-01-06T09:57:23.133Z,1404
2017-01-06T09:58:34.450Z,1452
2017-01-06T09:59:45.780Z,1484
2017-01-06T10:00:56.755Z,1528
2017-01-06T10:02:08.089Z,1564
2017-01-06T10:03:18.982Z,1584
2017-01-06T10:04:30.340Z,1592
2017-01-06T10:05:41.237Z,1580
2017-01-06T10:06:52.618Z,1576
2017-01-06T10:08:03.939Z,1584
2017-01-06T10:09:14.872Z,1596
2017-01-06T10:10:25.773Z,1636
2017-01-06T10:11:36.678Z,1684
2017-01-06T10:12:47.627Z,1720
2017-01-06T10:13:58.952Z,1752
2017-01-06T10:15:10.281Z,1784
2017-01-06T10:16:21.179Z,1800
2017-01-06T10:17:32.072Z,1820
2017-01-06T10:18:43.045Z,1796
2017-01-06T10:19:54.374Z,1880
2017-01-06T10:21:05.319Z,1900
2017-01-06T10:22:15.816Z,1908
2017-01-06T10:23:26.722Z,1900
2017-01-06T10:24:37.669Z,1892
2017-01-06T10:25:49.008Z,1864
2017-01-06T10:26:59.918Z,1864
2017-01-06T10:28:11.255Z,1832
2017-01-06T10:29:22.575Z,1848
2017-01-06T10:30:33.521Z,1864
2017-01-06T10:31:44.847Z,1732
2017-01-06T10:32:56.172Z,1652
2017-01-06T10:34:07.521Z,1724
2017-01-06T10:35:23.130Z,1796
2017-01-06T10:36:35.340Z,1888
2017-01-06T10:37:46.265Z,1936
2017-01-06T10:38:57.166Z,1904
2017-01-06T10:40:08.067Z,1888
2017-01-06T10:41:19.016Z,1884
2017-01-06T10:42:30.341Z,1908
2017-01-06T10:43:41.663Z,1936
2017-01-06T10:44:52.560Z,1952
2017-01-06T10:46:03.033Z,1948
2017-01-06T10:47:14.403Z,1816
2017-01-06T10:48:26.304Z,1656
2017-01-06T10:49:38.021Z,1600
2017-01-06T10:50:51.150Z,1712
2017-01-06T10:52:02.567Z,1688
2017-01-06T10:53:15.173Z,1568
2017-01-06T10:54:25.277Z,1548
2017-01-06T10:55:36.352Z,1616
2017-01-06T10:56:47.680Z,1784
2017-01-06T10:57:59.058Z,2000
2017-01-06T10:59:09.903Z,1940
2017-01-06T11:00:19.956Z,1808
2017-01-06T11:01:31.121Z,1896
2017-01-06T11:02:42.034Z,2128
2017-01-06T11:03:53.492Z,2208
2017-01-06T11:05:04.285Z,2084
2017-01-06T11:06:14.894Z,2084
2017-01-06T11:07:25.511Z,2192
2017-01-06T11:08:37.225Z,2156
2017-01-06T11:09:47.699Z,2148
2017-01-06T11:10:58.607Z,2244
2017-01-06T11:12:09.928Z,2256
2017-01-06T11:13:21.302Z,2156
2017-01-06T11:14:32.659Z,1996
2017-01-06T11:15:43.981Z,1788
2017-01-06T11:16:54.874Z,1800
2017-01-06T11:18:05.787Z,1992
2017-01-06T11:19:16.736Z,2168
2017-01-06T11:20:28.061Z,2316
2017-01-06T11:21:38.962Z,2428
2017-01-06T11:22:49.867Z,2668
2017-01-06T11:24:00.764Z,2816
2017-01-06T11:25:12.138Z,2764
2017-01-06T11:26:23.467Z,2732
2017-01-06T11:27:34.368Z,2764
2017-01-06T11:28:45.720Z,2792
2017-01-06T11:29:56.648Z,2872
2017-01-06T11:31:08.028Z,3060
2017-01-06T11:32:18.926Z,3244
2017-01-06T11:33:29.826Z,3360
2017-01-06T11:34:40.723Z,3408
2017-01-06T11:35:51.617Z,3436
2017-01-06T11:37:02.602Z,3456
2017-01-06T11:38:13.499Z,3464
2017-01-06T11:39:24.837Z,3484
2017-01-06T11:40:36.170Z,3504
2017-01-06T11:41:47.491Z,3516
2017-01-06T11:42:58.448Z,3520
2017-01-06T11:44:09.350Z,3548
2017-01-06T11:45:20.671Z,3560
2017-01-06T11:46:31.564Z,3572
2017-01-06T11:47:42.489Z,3592
2017-01-06T11:48:53.878Z,3600
2017-01-06T11:50:05.203Z,3612
2017-01-06T11:51:16.108Z,3608
2017-01-06T11:52:27.001Z,3588
2017-01-06T11:53:37.470Z,3584
2017-01-06T11:54:48.419Z,3584
2017-01-06T11:55:59.752Z,3584
2017-01-06T11:57:10.657Z,3548
2017-01-06T11:58:21.558Z,3492
2017-01-06T11:59:32.471Z,3312
2017-01-06T12:00:43.849Z,3112
2017-01-06T12:01:55.182Z,3056
2017-01-06T12:03:06.079Z,3096
2017-01-06T12:04:16.976Z,3052
2017-01-06T12:05:27.920Z,3048
2017-01-06T12:06:39.297Z,3188
2017-01-06T12:07:50.190Z,3312
2017-01-06T12:09:01.092Z,3388
2017-01-06T12:10:12.417Z,3468
2017-01-06T12:11:23.330Z,3520
2017-01-06T12:12:34.279Z,3524
2017-01-06T12:13:45.596Z,3524
2017-01-06T12:14:56.489Z,3520
2017-01-06T12:16:07.386Z,3512
2017-01-06T12:17:18.707Z,3504
2017-01-06T12:18:29.656Z,3408
2017-01-06T12:19:40.554Z,3328
2017-01-06T12:20:51.482Z,3416
2017-01-06T12:22:02.407Z,3416
2017-01-06T12:23:13.301Z,3432
2017-01-06T12:24:24.250Z,3444
2017-01-06T12:25:35.599Z,3436
2017-01-06T12:26:46.924Z,3404
2017-01-06T12:27:58.590Z,3404
2017-01-06T12:29:10.115Z,3404
2017-01-06T12:30:21.492Z,3388
2017-01-06T12:31:32.817Z,3380
2017-01-06T12:32:43.722Z,3372
2017-01-06T12:33:54.620Z,3380
2017-01-06T12:35:05.945Z,3372
2017-01-06T12:36:17.626Z,3348
2017-01-06T12:37:28.483Z,3348
2017-01-06T12:38:39.772Z,3360
2017-01-06T12:39:50.854Z,3356
2017-01-06T12:41:01.879Z,3344
2017-01-06T12:42:13.060Z,3344
2017-01-06T12:43:24.413Z,3344
2017-01-06T12:44:35.586Z,3336
2017-01-06T12:45:45.927Z,3332
2017-01-06T12:46:57.284Z,3312
2017-01-06T12:48:08.846Z,3296
2017-01-06T12:49:19.843Z,3276
2017-01-06T12:50:30.900Z,3256
2017-01-06T12:51:42.210Z,3236
2017-01-06T12:52:53.807Z,3224
2017-01-06T12:54:05.208Z,3216
2017-01-06T12:55:16.225Z,3188
2017-01-06T12:56:26.570Z,3164
2017-01-06T12:57:37.459Z,3144
2017-01-06T12:58:48.069Z,3120
2017-01-06T12:59:59.214Z,3100
2017-01-06T13:01:10.131Z,3064
2017-01-06T13:02:20.896Z,3040
2017-01-06T13:03:31.853Z,3004
2017-01-06T13:04:43.702Z,2980
2017-01-06T13:05:55.352Z,2952
2017-01-06T13:07:06.441Z,2920
2017-01-06T13:08:17.014Z,2908
2017-01-06T13:09:27.699Z,2880
2017-01-06T13:10:38.601Z,2848
2017-01-06T13:11:50.662Z,2820
2017-01-06T13:13:01.823Z,2792
2017-01-06T13:14:13.368Z,2760
2017-01-06T13:15:24.809Z,2724
2017-01-06T13:16:36.361Z,2708
2017-01-06T13:17:49.112Z,2676
2017-01-06T13:19:00.761Z,2652
2017-01-06T13:20:12.814Z,2624
2017-01-06T13:21:24.735Z,2604
2017-01-06T13:22:36.652Z,2588
2017-01-06T13:23:49.206Z,2564
2017-01-06T13:25:01.631Z,2540
2017-01-06T13:26:14.780Z,2504
2017-01-06T13:27:26.498Z,2476
2017-01-06T13:28:37.598Z,2452
2017-01-06T13:29:50.676Z,2416
2017-01-06T13:31:01.913Z,2392
2017-01-06T13:32:13.978Z,2376
2017-01-06T13:33:25.807Z,2344
2017-01-06T13:34:37.452Z,2312
2017-01-06T13:35:48.273Z,2284
2017-01-06T13:36:59.177Z,2260
2017-01-06T13:38:10.507Z,2228
2017-01-06T13:39:21.403Z,2204
2017-01-06T13:40:32.360Z,2172
2017-01-06T13:41:43.693Z,2112
2017-01-06T13:42:54.598Z,2104
2017-01-06T13:44:05.931Z,2076
2017-01-06T13:45:16.832Z,2052
2017-01-06T13:46:27.781Z,2028
2017-01-06T13:47:38.678Z,1996
2017-01-06T13:48:49.571Z,1964
2017-01-06T13:50:00.469Z,1952
2017-01-06T13:51:11.377Z,1916
2017-01-06T13:52:22.787Z,1832
2017-01-06T13:53:34.124Z,1592
2017-01-06T13:54:45.025Z,1304
2017-01-06T13:55:55.216Z,1080
2017-01-06T13:57:06.540Z,904
2017-01-06T13:58:17.301Z,772
2017-01-06T13:59:28.626Z,712
2017-01-06T14:00:39.107Z,684
2017-01-06T14:01:50.152Z,676
2017-01-06T14:03:02.710Z,668
2017-01-06T14:04:13.235Z,660
2017-01-06T14:05:24.284Z,656
2017-01-06T14:06:35.616Z,648
2017-01-06T14:07:46.518Z,640
2017-01-06T14:08:57.427Z,636
2017-01-06T14:10:08.372Z,628
2017-01-06T14:11:19.274Z,624
2017-01-06T14:12:30.595Z,620
2017-01-06T14:13:41.488Z,612
2017-01-06T14:14:52.817Z,604
2017-01-06T14:16:04.342Z,596
2017-01-06T14:17:15.255Z,596
2017-01-06T14:18:26.152Z,584
2017-01-06T14:19:37.486Z,580
2017-01-06T14:20:48.807Z,572
2017-01-06T14:21:59.752Z,568
2017-01-06T14:23:10.657Z,560
2017-01-06T14:24:21.554Z,556
2017-01-06T14:25:32.876Z,548
2017-01-06T14:26:43.773Z,540
2017-01-06T14:27:55.150Z,536
2017-01-06T14:29:06.487Z,528
2017-01-06T14:30:17.388Z,520
2017-01-06T14:31:28.289Z,516
2017-01-06T14:32:39.615Z,504
2017-01-06T14:33:50.997Z,500
2017-01-06T14:35:01.890Z,492
2017-01-06T14:36:12.797Z,484
2017-01-06T14:37:24.130Z,476
2017-01-06T14:38:35.042Z,464
2017-01-06T14:39:46.427Z,456
2017-01-06T14:40:56.896Z,452
2017-01-06T14:42:07.849Z,440
2017-01-06T14:43:19.183Z,432
2017-01-06T14:44:30.511Z,424
2017-01-06T14:45:41.829Z,416
2017-01-06T14:46:52.726Z,408
2017-01-06T14:48:04.108Z,400
2017-01-06T14:49:15.009Z,388
2017-01-06T14:50:25.562Z,380
2017-01-06T14:51:36.887Z,368
2017-01-06T14:52:47.790Z,360
2017-01-06T14:53:58.743Z,348
2017-01-06T14:55:09.251Z,336
2017-01-06T14:56:20.580Z,328
2017-01-06T14:57:31.109Z,316
2017-01-06T14:58:41.743Z,308
2017-01-06T14:59:53.056Z,300
2017-01-06T15:01:03.609Z,288
2017-01-06T15:02:14.626Z,280
2017-01-06T15:03:25.683Z,264
2017-01-06T15:04:36.272Z,256
2017-01-06T15:05:46.797Z,244
2017-01-06T15:06:57.707Z,236
2017-01-06T15:08:09.035Z,224
2017-01-06T15:09:19.936Z,212
2017-01-06T15:10:30.829Z,204
2017-01-06T15:11:41.779Z,192
2017-01-06T15:12:52.856Z,180
2017-01-06T15:14:04.210Z,172
2017-01-06T15:15:15.110Z,160
2017-01-06T15:16:26.435Z,152
2017-01-06T15:17:37.388Z,140
2017-01-06T15:18:48.294Z,132
2017-01-06T15:20:01.115Z,124
2017-01-06T15:21:11.672Z,112
2017-01-06T15:22:22.305Z,104
2017-01-06T15:23:33.678Z,96
2017-01-06T15:24:44.855Z,88
2017-01-06T15:25:55.752Z,80
2017-01-06T15:27:06.657Z,72
2017-01-06T15:28:17.990Z,68
2017-01-06T15:29:29.479Z,60
2017-01-06T15:30:40.629Z,56
2017-01-06T15:31:51.773Z,48
2017-01-06T15:33:02.667Z,44
2017-01-06T15:34:13.569Z,40
2017-01-06T15:35:25.785Z,32
2017-01-06T15:36:36.683Z,32
2017-01-06T15:37:48.012Z,28
2017-01-06T15:38:59.401Z,24
2017-01-06T15:40:10.731Z,20
2017-01-06T15:41:21.719Z,16
2017-01-06T15:42:33.141Z,16
2017-01-06T15:43:44.042Z,12
2017-01-06T15:44:55.527Z,12
2017-01-06T15:46:06.860Z,12
2017-01-06T15:47:17.382Z,8
2017-01-06T15:48:28.323Z,4
2017-01-06T15:49:39.396Z,8
2017-01-06T15:50:50.717Z,8
2017-01-06T15:52:02.051Z,4
2017-01-06T15:53:13.008Z,4
2017-01-06T15:54:23.909Z,4
2017-01-06T15:55:35.235Z,4
2017-01-06T15:56:46.195Z,0
2017-01-06T15:57:57.093Z,4
2017-01-06T15:59:08.678Z,4
2017-01-06T16:00:20.007Z,4
2017-01-06T16:01:30.936Z,4
2017-01-06T16:02:41.841Z,4
2017-01-06T16:03:53.174Z,0
2017-01-06T16:05:03.748Z,0
2017-01-06T16:06:14.645Z,0
2017-01-06T16:07:25.547Z,0
2017-01-06T16:08:36.872Z,0
2017-01-06T16:09:47.761Z,0
2017-01-06T16:10:58.734Z,0
2017-01-06T16:12:09.715Z,0
2017-01-06T16:13:20.608Z,0
2017-01-06T16:14:31.934Z,0
2017-01-06T16:15:42.828Z,0
2017-01-06T16:16:53.781Z,0
2017-01-06T16:18:04.430Z,0
2017-01-06T16:19:15.351Z,0
2017-01-06T16:20:26.688Z,0
2017-01-06T16:21:37.334Z,0
2017-01-06T16:22:47.599Z,0
2017-01-06T16:23:58.504Z,0
2017-01-06T16:25:09.165Z,0
2017-01-06T16:26:20.064Z,0
2017-01-06T16:27:31.116Z,0
2017-01-06T16:28:41.390Z,4
2017-01-06T16:29:52.295Z,4
2017-01-06T16:31:03.196Z,0
2017-01-06T16:32:14.525Z,4
2017-01-06T16:33:26.074Z,4
2017-01-06T16:34:37.149Z,4
2017-01-06T16:35:48.475Z,4
2017-01-06T16:36:59.763Z,4
2017-01-06T16:38:10.672Z,0
2017-01-06T16:39:21.669Z,4
2017-01-06T16:40:32.670Z,4
2017-01-06T16:41:43.624Z,4
2017-01-06T16:42:54.717Z,0
2017-01-06T16:44:05.198Z,4
2017-01-06T16:45:16.755Z,4
2017-01-06T16:46:27.525Z,4
2017-01-06T16:47:38.846Z,4
2017-01-06T16:48:49.951Z,4
2017-01-06T16:50:00.853Z,4
2017-01-06T16:51:12.370Z,4
2017-01-06T16:52:23.319Z,4
2017-01-06T16:53:34.313Z,0
2017-01-06T16:54:44.794Z,0
2017-01-06T16:55:55.691Z,4
2017-01-06T16:57:06.602Z,0
2017-01-06T16:58:16.697Z,0
2017-01-06T16:59:28.043Z,0
2017-01-06T17:00:38.940Z,0
2017-01-06T17:01:49.765Z,0
2017-01-06T17:03:00.230Z,0
2017-01-06T17:04:11.480Z,4
2017-01-06T17:05:22.389Z,4
2017-01-06T17:06:33.754Z,4
2017-01-06T17:07:44.271Z,0
2017-01-06T17:08:55.272Z,4
2017-01-06T17:10:06.326Z,0
2017-01-06T17:11:16.563Z,4
2017-01-06T17:12:27.884Z,4
2017-01-06T17:13:38.781Z,4
2017-01-06T17:14:49.430Z,4
2017-01-06T17:16:00.392Z,0
2017-01-06T17:17:12.021Z,4
2017-01-06T17:18:22.922Z,0
2017-01-06T17:19:33.836Z,0
2017-01-06T17:20:45.161Z,0
2017-01-06T17:21:56.650Z,0
2017-01-06T17:23:07.547Z,0
2017-01-06T17:24:18.457Z,0
2017-01-06T17:25:29.650Z,0
2017-01-06T17:26:40.543Z,0
2017-01-06T17:27:51.717Z,0
2017-01-06T17:29:03.042Z,0
2017-01-06T17:30:14.619Z,0
2017-01-06T17:31:25.521Z,0
2017-01-06T17:32:37.050Z,0
2017-01-06T17:33:48.418Z,0
2017-01-06T17:34:59.836Z,0
2017-01-06T17:36:10.737Z,0
2017-01-06T17:37:22.166Z,4
2017-01-06T17:38:33.156Z,0
2017-01-06T17:39:44.105Z,0
2017-01-06T17:40:54.751Z,0
2017-01-06T17:42:05.660Z,0
2017-01-06T17:43:16.561Z,0
2017-01-06T17:44:27.486Z,0
2017-01-06T17:45:38.855Z,0
2017-01-06T17:46:49.753Z,0
2017-01-06T17:48:05.882Z,0
2017-01-06T17:49:17.255Z,0
2017-01-06T17:50:28.165Z,0
2017-01-06T17:51:39.146Z,0
2017-01-06T17:52:50.223Z,4
2017-01-06T17:54:01.656Z,0
2017-01-06T17:55:12.369Z,4
2017-01-06T17:56:23.538Z,0
2017-01-06T17:57:34.868Z,0
2017-01-06T17:58:45.865Z,4
2017-01-06T17:59:56.346Z,4
2017-01-06T18:01:07.063Z,4
2017-01-06T18:02:18.017Z,4
2017-01-06T18:03:28.494Z,0
2017-01-06T18:04:39.819Z,0
2017-01-06T18:05:50.716Z,0
2017-01-06T18:07:02.049Z,0
2017-01-06T18:08:12.999Z,0
2017-01-06T18:09:23.905Z,0
2017-01-06T18:10:35.229Z,0
2017-01-06T18:11:46.550Z,0
2017-01-06T18:12:57.452Z,0
2017-01-06T18:14:08.445Z,0
2017-01-06T18:15:19.774Z,0
2017-01-06T18:16:30.679Z,0
2017-01-06T18:17:42.004Z,0
2017-01-06T18:18:52.902Z,0
2017-01-06T18:20:04.283Z,0
2017-01-06T18:21:15.604Z,0
2017-01-06T18:22:26.929Z,0
2017-01-06T18:23:37.831Z,0
2017-01-06T18:24:49.152Z,0
2017-01-06T18:26:00.529Z,0
2017-01-06T18:27:11.434Z,0
2017-01-06T18:28:22.756Z,0
2017-01-06T18:29:33.657Z,0
2017-01-06T18:30:44.554Z,0
2017-01-06T18:31:55.931Z,0
2017-01-06T18:33:07.260Z,0
2017-01-06T18:34:18.590Z,0
2017-01-06T18:35:29.919Z,0
2017-01-06T18:36:40.812Z,0
2017-01-06T18:37:52.449Z,0
2017-01-06T18:39:03.354Z,0
2017-01-06T18:40:14.684Z,0
2017-01-06T18:41:25.585Z,0
2017-01-06T18:42:36.914Z,0
2017-01-06T18:43:47.871Z,0
2017-01-06T18:44:59.204Z,0
2017-01-06T18:46:10.097Z,0
2017-01-06T18:47:21.443Z,0
2017-01-06T18:48:32.355Z,0
2017-01-06T18:49:43.777Z,0
2017-01-06T18:50:54.674Z,0
2017-01-06T18:52:05.567Z,0
2017-01-06T18:53:16.893Z,0
2017-01-06T18:54:28.217Z,0
2017-01-06T18:55:39.179Z,0
2017-01-06T18:56:50.077Z,0
2017-01-06T18:58:01.401Z,0
2017-01-06T18:59:12.731Z,0
2017-01-06T19:00:23.636Z,0
2017-01-06T19:01:34.609Z,0
2017-01-06T19:02:45.543Z,0
2017-01-06T19:03:56.444Z,0
2017-01-06T19:05:07.345Z,0
2017-01-06T19:06:18.246Z,0
2017-01-06T19:07:29.623Z,0
2017-01-06T19:08:40.520Z,0
2017-01-06T19:09:51.861Z,0
2017-01-06T19:11:02.755Z,0
2017-01-06T19:12:14.080Z,0
2017-01-06T19:13:25.081Z,0
2017-01-06T19:14:35.974Z,0
2017-01-06T19:15:46.875Z,0
2017-01-06T19:16:57.784Z,0
2017-01-06T19:18:08.686Z,0
2017-01-06T19:19:19.647Z,0
2017-01-06T19:20:30.559Z,0
2017-01-06T19:21:41.921Z,0
2017-01-06T19:22:52.814Z,0
2017-01-06T19:24:02.907Z,0
2017-01-06T19:25:13.476Z,0
2017-01-06T19:26:24.398Z,0
2017-01-06T19:27:35.470Z,0
2017-01-06T19:28:46.096Z,0
2017-01-06T19:29:55.829Z,0
2017-01-06T19:31:06.594Z,0
2017-01-06T19:32:17.680Z,0
2017-01-06T19:33:28.868Z,0
2017-01-06T19:34:38.683Z,0
2017-01-06T19:35:49.435Z,0
2017-01-06T19:36:59.744Z,0
2017-01-06T19:38:10.105Z,0
2017-01-06T19:39:20.990Z,0
2017-01-06T19:40:31.016Z,0
2017-01-06T19:41:42.764Z,0
2017-01-06T19:42:52.878Z,0
2017-01-06T19:44:03.907Z,0
2017-01-06T19:45:15.344Z,0
2017-01-06T19:46:25.997Z,0
2017-01-06T19:47:37.071Z,0
2017-01-06T19:48:48.604Z,0
2017-01-06T19:49:59.713Z,0
2017-01-06T19:51:10.314Z,0
2017-01-06T19:52:20.992Z,0
2017-01-06T19:53:31.692Z,0
2017-01-06T19:54:42.866Z,0
2017-01-06T19:55:52.498Z,0
2017-01-06T19:57:02.656Z,0
2017-01-06T19:58:12.293Z,0
2017-01-06T19:59:23.310Z,0
2017-01-06T20:00:33.767Z,0
2017-01-06T20:01:43.884Z,0
2017-01-06T20:02:54.834Z,0
2017-01-06T20:04:04.850Z,0
2017-01-06T20:05:16.628Z,0
2017-01-06T20:06:27.107Z,0
2017-01-06T20:07:37.546Z,0
2017-01-06T20:08:48.403Z,0
2017-01-06T20:09:58.817Z,0
2017-01-06T20:11:10.221Z,0
2017-01-06T20:12:21.371Z,0
2017-01-06T20:13:32.384Z,0
2017-01-06T20:14:43.233Z,0
2017-01-06T20:15:52.763Z,0
2017-01-06T20:17:03.307Z,0
2017-01-06T20:18:13.876Z,0
2017-01-06T20:19:24.849Z,0
2017-01-06T20:20:35.291Z,0
2017-01-06T20:21:45.716Z,0
2017-01-06T20:22:55.793Z,0
2017-01-06T20:24:06.402Z,0
2017-01-06T20:25:17.299Z,0
2017-01-06T20:26:28.208Z,0
2017-01-06T20:27:38.698Z,0
2017-01-06T20:28:49.083Z,0
2017-01-06T20:30:00.060Z,0
2017-01-06T20:31:10.389Z,0
2017-01-06T20:32:21.706Z,0
2017-01-06T20:33:32.043Z,0
2017-01-06T20:34:42.373Z,0
2017-01-06T20:35:52.925Z,0
2017-01-06T20:37:03.375Z,0
2017-01-06T20:38:14.152Z,0
2017-01-06T20:39:24.497Z,0
2017-01-06T20:40:33.990Z,0
2017-01-06T20:41:44.439Z,0
2017-01-06T20:42:55.185Z,0
2017-01-06T20:44:05.534Z,0
2017-01-06T20:45:17.287Z,0
2017-01-06T20:46:28.188Z,0
2017-01-06T20:47:39.409Z,0
2017-01-06T20:48:49.643Z,0
2017-01-06T20:50:00.464Z,0
2017-01-06T20:51:10.781Z,0
2017-01-06T20:52:21.949Z,0
2017-01-06T20:53:32.203Z,0
2017-01-06T20:54:41.996Z,0
2017-01-06T20:55:52.229Z,0
2017-01-06T20:57:02.066Z,0
2017-01-06T20:58:13.195Z,0
2017-01-06T20:59:23.465Z,0
2017-01-06T21:00:34.578Z,0
2017-01-06T21:01:45.171Z,0
2017-01-06T21:02:55.400Z,0
2017-01-06T21:04:06.553Z,0
2017-01-06T21:05:17.278Z,0
2017-01-06T21:06:27.547Z,0
2017-01-06T21:07:38.684Z,0
2017-01-06T21:08:49.314Z,0
2017-01-06T21:09:59.588Z,0
2017-01-06T21:11:10.284Z,0
2017-01-06T21:12:21.305Z,0
2017-01-06T21:13:31.914Z,0
2017-01-06T21:14:42.028Z,0
2017-01-06T21:15:53.125Z,0
2017-01-06T21:17:02.918Z,0
2017-01-06T21:18:13.527Z,0
2017-01-06T21:19:23.712Z,0
2017-01-06T21:20:33.418Z,0
2017-01-06T21:21:44.386Z,0
2017-01-06T21:22:54.560Z,0
2017-01-06T21:24:06.005Z,0
2017-01-06T21:25:17.015Z,0
2017-01-06T21:26:27.532Z,0
2017-01-06T21:27:37.213Z,0
2017-01-06T21:28:47.462Z,0
2017-01-06T21:29:57.187Z,0
2017-01-06T21:31:07.328Z,0
2017-01-06T21:32:17.425Z,0
2017-01-06T21:33:27.938Z,0
2017-01-06T21:34:38.476Z,0
2017-01-06T21:35:48.617Z,0
2017-01-06T21:36:59.594Z,0
2017-01-06T21:38:10.079Z,0
2017-01-06T21:39:20.144Z,0
2017-01-06T21:40:30.262Z,0
2017-01-06T21:41:41.159Z,0
2017-01-06T21:42:51.240Z,0
2017-01-06T21:44:02.197Z,0
2017-01-06T21:45:13.130Z,0
2017-01-06T21:46:24.147Z,0
2017-01-06T21:47:35.061Z,0
2017-01-06T21:48:45.546Z,0
2017-01-06T21:49:56.479Z,0
2017-01-06T21:51:07.000Z,0
2017-01-06T21:52:17.098Z,0
2017-01-06T21:53:27.159Z,0
2017-01-06T21:54:37.632Z,0
2017-01-06T21:55:47.717Z,0
2017-01-06T21:56:58.211Z,0
2017-01-06T21:58:09.215Z,0
2017-01-06T21:59:20.129Z,0
2017-01-06T22:00:31.018Z,0
2017-01-06T22:01:41.911Z,0
2017-01-06T22:02:53.248Z,0
2017-01-06T22:04:04.201Z,0
2017-01-06T22:05:15.530Z,0
2017-01-06T22:06:26.424Z,0
2017-01-06T22:07:37.325Z,0
2017-01-06T22:08:48.238Z,0
2017-01-06T22:09:59.607Z,0
2017-01-06T22:11:10.929Z,0
2017-01-06T22:12:21.409Z,0
2017-01-06T22:13:32.307Z,0
2017-01-06T22:14:43.204Z,0
2017-01-06T22:15:54.177Z,4
2017-01-06T22:17:05.094Z,0
2017-01-06T22:18:16.424Z,0
2017-01-06T22:19:27.328Z,0
2017-01-06T22:20:38.646Z,0
2017-01-06T22:21:50.020Z,0
2017-01-06T22:23:00.944Z,0
2017-01-06T22:24:11.834Z,0
2017-01-06T22:25:23.183Z,0
2017-01-06T22:26:34.080Z,4
2017-01-06T22:27:45.458Z,0
2017-01-06T22:28:56.355Z,0
2017-01-06T22:30:07.672Z,0
2017-01-06T22:31:18.573Z,0
2017-01-06T22:32:29.470Z,0
2017-01-06T22:33:40.467Z,0
2017-01-06T22:34:51.792Z,0
2017-01-06T22:36:03.106Z,0
2017-01-06T22:37:14.423Z,0
2017-01-06T22:38:24.916Z,0
2017-01-06T22:39:35.865Z,0
2017-01-06T22:40:46.754Z,0
2017-01-06T22:41:58.075Z,0
2017-01-06T22:43:08.977Z,0
2017-01-06T22:44:19.870Z,0
2017-01-06T22:45:30.811Z,0
2017-01-06T22:46:42.136Z,0
2017-01-06T22:47:53.457Z,4
